De Xin Hai — BQBP — position and weather

sailwx.info

Track history (hours):
 
Tides and Currents Weather Stations Pressure Air Temp Water Temp Dewpoint Dewpoint Depression Visibility Wind Speed Wind Dir Waves Ship Positions

De Xin Hai

Last reported at 2015-Jul-26 10:20 UTC. Time now 2015-Aug-05 02:24 UTC.
Position N 37°26' E 016°23'.
Warning: this ship's position is 9 days out of date.

Length 225 m; draft 6.9 m.

Type: Cargo ship. MMSI: 367344200.

Date/timePositionNaut miles runAvg speedWind from/ knotsBaromVisibWave heightAir tempDewpointWater temp
2015-Jul-26 10:20N 37°26' E 016°23'1212.9
2015-Jul-26 09:23N 37°17' E 016°13'3512.0
2015-Jul-26 06:29N 36°50' E 015°45'2311.5
2015-Jul-26 04:28N 36°35' E 015°23'1111.8
2015-Jul-26 03:32N 36°31' E 015°11'1212.1
2015-Jul-26 02:33N 36°30' E 014°56'1212.2
2015-Jul-26 01:33N 36°29' E 014°41'1212.2
2015-Jul-26 00:34N 36°29' E 014°26'1212.1
2015-Jul-25 23:34N 36°31' E 014°11'1212.1
2015-Jul-25 22:34N 36°33' E 013°56'1212.3
2015-Jul-25 21:34N 36°35' E 013°41'1212.2
2015-Jul-25 20:34N 36°37' E 013°26'1211.9
2015-Jul-25 19:34N 36°37' E 013°11'1212.0
2015-Jul-25 18:34N 36°40' E 012°56'1211.9
2015-Jul-25 17:34N 36°43' E 012°42'1212.4
2015-Jul-25 16:33N 36°49' E 012°28'1312.9
2015-Jul-25 15:34N 36°55' E 012°14'33012.0
2015-Jul-24 12:03N 37°16' E 005°21'612.6
2015-Jul-24 11:32N 37°15' E 005°13'3812.4
2015-Jul-24 08:30N 37°10' E 004°26'3912.7
2015-Jul-24 05:28N 37°04' E 003°38'3812.6
2015-Jul-24 02:27N 36°59' E 002°51'1112.3
2015-Jul-24 01:33N 36°57' E 002°38'1312.4
2015-Jul-24 00:33N 36°54' E 002°22'1212.4
2015-Jul-23 23:33N 36°52' E 002°07'1211.9
2015-Jul-23 22:33N 36°50' E 001°53'1211.5
2015-Jul-23 21:32N 36°48' E 001°39'1111.3
2015-Jul-23 20:32N 36°46' E 001°25'1511.6
2015-Jul-23 19:16N 36°43' E 001°07'912.5
2015-Jul-23 18:32N 36°41' E 000°55'1312.6
2015-Jul-23 17:32N 36°39' E 000°40'1212.0
2015-Jul-23 16:33N 36°37' E 000°25'1211.9
2015-Jul-23 15:33N 36°34' E 000°11'3012.1
2015-Jul-23 13:05N 36°29' W 000°26'612.3
2015-Jul-23 12:33N 36°28' W 000°33'1212.2
2015-Jul-23 11:32N 36°25' W 000°49'6011.9
2015-Jul-23 06:29N 36°14' W 002°02'1611.7
2015-Jul-23 05:06N 36°11' W 002°22'246 7.7
2015-Jul-21 21:14N 35°54' W 007°25'811.7
2015-Jul-21 20:33N 35°54' W 007°35'2411.9
2015-Jul-21 18:33N 35°54' W 008°04'2512.2
2015-Jul-21 16:31N 35°54' W 008°35'29 9.6
2015-Jul-21 13:33N 35°54' W 009°10'  
2015-Jul-18 16:17N 39°24' W 026°24'1212.8
2015-Jul-18 15:22N 39°26' W 026°39'3612.7
2015-Jul-18 12:31N 39°33' W 027°25'1212.7
2015-Jul-18 11:33N 39°36' W 027°41'1313.0
2015-Jul-18 10:34N 39°38' W 027°57'1212.4
2015-Jul-18 09:33N 39°40' W 028°13'1312.9
2015-Jul-18 08:33N 39°43' W 028°29'1313.1
2015-Jul-18 07:33N 39°46' W 028°46'1313.1
2015-Jul-18 06:33N 39°48' W 029°03'1312.6
2015-Jul-18 05:33N 39°51' W 029°19'1312.8
2015-Jul-18 04:33N 39°53' W 029°35'7512.4
2015-Jul-17 22:29N 40°02' W 031°13'10512.8
2015-Jul-17 14:16N 40°10' W 033°30'1613.3
2015-Jul-17 13:04N 40°12' W 033°51'913.2
2015-Jul-17 12:23N 40°13' W 034°03'1413.0
2015-Jul-17 11:17N 40°14' W 034°21'  
Track history (hours):
 
Tides and Currents Weather Stations Pressure Air Temp Water Temp Dewpoint Dewpoint Depression Visibility Wind Speed Wind Dir Waves Ship Positions

De Xin Hai

Last reported at 2015-Jul-26 10:20 UTC. Time now 2015-Aug-05 02:24 UTC.
Position N 37°26' E 016°23'.
Warning: this ship's position is 9 days out of date.

Length 225 m; draft 6.9 m.

Type: Cargo ship. MMSI: 367344200.

Date/timePositionNaut miles runAvg speedWind from/ knotsBaromVisibWave heightAir tempDewpointWater temp
2015-Jul-26 10:20N 37°26' E 016°23'1212.9
2015-Jul-26 09:23N 37°17' E 016°13'3512.0
2015-Jul-26 06:29N 36°50' E 015°45'2311.5
2015-Jul-26 04:28N 36°35' E 015°23'1111.8
2015-Jul-26 03:32N 36°31' E 015°11'1212.1
2015-Jul-26 02:33N 36°30' E 014°56'1212.2
2015-Jul-26 01:33N 36°29' E 014°41'1212.2
2015-Jul-26 00:34N 36°29' E 014°26'1212.1
2015-Jul-25 23:34N 36°31' E 014°11'1212.1
2015-Jul-25 22:34N 36°33' E 013°56'1212.3
2015-Jul-25 21:34N 36°35' E 013°41'1212.2
2015-Jul-25 20:34N 36°37' E 013°26'1211.9
2015-Jul-25 19:34N 36°37' E 013°11'1212.0
2015-Jul-25 18:34N 36°40' E 012°56'1211.9
2015-Jul-25 17:34N 36°43' E 012°42'1212.4
2015-Jul-25 16:33N 36°49' E 012°28'1312.9
2015-Jul-25 15:34N 36°55' E 012°14'33012.0
2015-Jul-24 12:03N 37°16' E 005°21'612.6
2015-Jul-24 11:32N 37°15' E 005°13'3812.4
2015-Jul-24 08:30N 37°10' E 004°26'3912.7
2015-Jul-24 05:28N 37°04' E 003°38'3812.6
2015-Jul-24 02:27N 36°59' E 002°51'1112.3
2015-Jul-24 01:33N 36°57' E 002°38'1312.4
2015-Jul-24 00:33N 36°54' E 002°22'1212.4
2015-Jul-23 23:33N 36°52' E 002°07'1211.9
2015-Jul-23 22:33N 36°50' E 001°53'1211.5
2015-Jul-23 21:32N 36°48' E 001°39'1111.3
2015-Jul-23 20:32N 36°46' E 001°25'1511.6
2015-Jul-23 19:16N 36°43' E 001°07'912.5
2015-Jul-23 18:32N 36°41' E 000°55'1312.6
2015-Jul-23 17:32N 36°39' E 000°40'1212.0
2015-Jul-23 16:33N 36°37' E 000°25'1211.9
2015-Jul-23 15:33N 36°34' E 000°11'3012.1
2015-Jul-23 13:05N 36°29' W 000°26'612.3
2015-Jul-23 12:33N 36°28' W 000°33'1212.2
2015-Jul-23 11:32N 36°25' W 000°49'6011.9
2015-Jul-23 06:29N 36°14' W 002°02'1611.7
2015-Jul-23 05:06N 36°11' W 002°22'246 7.7
2015-Jul-21 21:14N 35°54' W 007°25'811.7
2015-Jul-21 20:33N 35°54' W 007°35'2411.9
2015-Jul-21 18:33N 35°54' W 008°04'2512.2
2015-Jul-21 16:31N 35°54' W 008°35'29 9.6
2015-Jul-21 13:33N 35°54' W 009°10'  
2015-Jul-18 16:17N 39°24' W 026°24'1212.8
2015-Jul-18 15:22N 39°26' W 026°39'3612.7
2015-Jul-18 12:31N 39°33' W 027°25'1212.7
2015-Jul-18 11:33N 39°36' W 027°41'1313.0
2015-Jul-18 10:34N 39°38' W 027°57'1212.4
2015-Jul-18 09:33N 39°40' W 028°13'1312.9
2015-Jul-18 08:33N 39°43' W 028°29'1313.1
2015-Jul-18 07:33N 39°46' W 028°46'1313.1
2015-Jul-18 06:33N 39°48' W 029°03'1312.6
2015-Jul-18 05:33N 39°51' W 029°19'1312.8
2015-Jul-18 04:33N 39°53' W 029°35'7512.4
2015-Jul-17 22:29N 40°02' W 031°13'10512.8
2015-Jul-17 14:16N 40°10' W 033°30'1613.3
2015-Jul-17 13:04N 40°12' W 033°51'913.2
2015-Jul-17 12:23N 40°13' W 034°03'1413.0
2015-Jul-17 11:17N 40°14' W 034°21'  

Dump ship's entire track history